sensor_id;sensor_type;location;lat;lon;timestamp;pressure;altitude;pressure_sealevel;temperature;humidity
33496;BME280;19836;55.812;37.560;2023-05-23T00:02:05;99980.34;;;14.48;75.66
33496;BME280;19836;55.812;37.560;2023-05-23T00:04:34;99967.88;;;14.45;75.77
33496;BME280;19836;55.812;37.560;2023-05-23T00:07:07;99970.66;;;14.44;75.86
33496;BME280;19836;55.812;37.560;2023-05-23T00:09:39;99976.06;;;14.44;76.19
33496;BME280;19836;55.812;37.560;2023-05-23T00:12:05;99973.41;;;14.42;75.85
33496;BME280;19836;55.812;37.560;2023-05-23T00:14:34;99977.06;;;14.41;76.39
33496;BME280;19836;55.812;37.560;2023-05-23T00:17:00;99970.91;;;14.38;76.04
33496;BME280;19836;55.812;37.560;2023-05-23T00:19:30;99970.97;;;14.36;76.30
33496;BME280;19836;55.812;37.560;2023-05-23T00:21:58;99978.28;;;14.33;76.20
33496;BME280;19836;55.812;37.560;2023-05-23T00:24:36;99977.44;;;14.32;76.39
33496;BME280;19836;55.812;37.560;2023-05-23T00:27:03;99970.28;;;14.31;76.48
33496;BME280;19836;55.812;37.560;2023-05-23T00:29:29;99975.69;;;14.31;76.69
33496;BME280;19836;55.812;37.560;2023-05-23T00:31:58;99980.19;;;14.31;76.65
33496;BME280;19836;55.812;37.560;2023-05-23T00:34:30;99977.44;;;14.32;76.75
33496;BME280;19836;55.812;37.560;2023-05-23T00:36:58;99979.25;;;14.32;76.57
33496;BME280;19836;55.812;37.560;2023-05-23T00:39:29;99983.84;;;14.30;76.66
33496;BME280;19836;55.812;37.560;2023-05-23T00:42:03;99980.25;;;14.29;76.94
33496;BME280;19836;55.812;37.560;2023-05-23T00:44:33;99969.63;;;14.26;77.14
33496;BME280;19836;55.812;37.560;2023-05-23T00:47:06;99968.84;;;14.23;76.97
33496;BME280;19836;55.812;37.560;2023-05-23T00:49:39;99971.63;;;14.21;76.89
33496;BME280;19836;55.812;37.560;2023-05-23T00:52:08;99975.34;;;14.17;76.94
33496;BME280;19836;55.812;37.560;2023-05-23T00:54:35;99979.09;;;14.13;77.22
33496;BME280;19836;55.812;37.560;2023-05-23T00:57:07;99971.13;;;14.10;77.10
33496;BME280;19836;55.812;37.560;2023-05-23T00:59:39;99971.25;;;14.07;77.02
33496;BME280;19836;55.812;37.560;2023-05-23T01:02:08;99975.00;;;14.03;76.67
33496;BME280;19836;55.812;37.560;2023-05-23T01:04:46;99975.00;;;14.03;76.99
33496;BME280;19836;55.812;37.560;2023-05-23T01:07:15;99971.53;;;14.01;77.19
33496;BME280;19836;55.812;37.560;2023-05-23T01:09:42;99968.00;;;13.99;77.03
33496;BME280;19836;55.812;37.560;2023-05-23T01:12:33;99961.78;;;13.97;77.18
33496;BME280;19836;55.812;37.560;2023-05-23T01:15:12;99960.84;;;13.98;77.02
33496;BME280;19836;55.812;37.560;2023-05-23T01:17:53;99964.50;;;13.97;76.87
33496;BME280;19836;55.812;37.560;2023-05-23T01:20:40;99966.25;;;13.98;76.96
33496;BME280;19836;55.812;37.560;2023-05-23T01:28:13;99956.34;;;13.99;77.09
33496;BME280;19836;55.812;37.560;2023-05-23T01:30:44;99959.91;;;13.99;77.26
33496;BME280;19836;55.812;37.560;2023-05-23T01:33:13;99953.56;;;14.00;76.85
33496;BME280;19836;55.812;37.560;2023-05-23T01:35:46;99953.56;;;14.00;76.96
33496;BME280;19836;55.812;37.560;2023-05-23T01:38:15;99948.19;;;14.00;77.27
33496;BME280;19836;55.812;37.560;2023-05-23T01:40:44;99959.78;;;14.02;77.20
33496;BME280;19836;55.812;37.560;2023-05-23T01:43:10;99959.78;;;14.02;76.95
33496;BME280;19836;55.812;37.560;2023-05-23T01:45:37;99959.78;;;14.02;77.06
33496;BME280;19836;55.812;37.560;2023-05-23T01:48:03;99960.66;;;14.03;76.94
33496;BME280;19836;55.812;37.560;2023-05-23T01:50:33;99978.50;;;14.05;77.04
33496;BME280;19836;55.812;37.560;2023-05-23T01:53:04;99963.13;;;14.09;77.17
33496;BME280;19836;55.812;37.560;2023-05-23T01:55:36;99963.97;;;14.09;77.20
33496;BME280;19836;55.812;37.560;2023-05-23T01:58:06;99956.66;;;14.13;76.85
33496;BME280;19836;55.812;37.560;2023-05-23T02:00:39;99947.56;;;14.15;77.13
33496;BME280;19836;55.812;37.560;2023-05-23T02:03:09;99943.84;;;14.18;76.62
33496;BME280;19836;55.812;37.560;2023-05-23T02:05:36;99941.97;;;14.21;76.96
33496;BME280;19836;55.812;37.560;2023-05-23T02:08:06;99936.59;;;14.21;76.66
33496;BME280;19836;55.812;37.560;2023-05-23T02:10:32;99943.56;;;14.25;76.48
33496;BME280;19836;55.812;37.560;2023-05-23T02:13:01;99938.06;;;14.28;76.49
33496;BME280;19836;55.812;37.560;2023-05-23T02:15:30;99946.03;;;14.31;76.47
33496;BME280;19836;55.812;37.560;2023-05-23T02:18:00;99947.56;;;14.37;75.97
33496;BME280;19836;55.812;37.560;2023-05-23T02:20:27;99942.94;;;14.40;76.29
33496;BME280;19836;55.812;37.560;2023-05-23T02:22:54;99938.38;;;14.42;76.01
33496;BME280;19836;55.812;37.560;2023-05-23T02:25:22;99939.91;;;14.48;75.60
33496;BME280;19836;55.812;37.560;2023-05-23T02:27:52;99948.81;;;14.50;75.83
33496;BME280;19836;55.812;37.560;2023-05-23T02:30:20;99946.13;;;14.50;75.94
33496;BME280;19836;55.812;37.560;2023-05-23T02:32:51;99932.66;;;14.50;76.11
33496;BME280;19836;55.812;37.560;2023-05-23T02:35:18;99936.09;;;14.53;75.33
33496;BME280;19836;55.812;37.560;2023-05-23T02:37:44;99939.47;;;14.58;76.05
33496;BME280;19836;55.812;37.560;2023-05-23T02:40:30;99925.03;;;14.59;75.41
33496;BME280;19836;55.812;37.560;2023-05-23T02:43:00;99928.63;;;14.60;75.67
33496;BME280;19836;55.812;37.560;2023-05-23T02:45:26;99933.00;;;14.62;75.13
33496;BME280;19836;55.812;37.560;2023-05-23T02:47:56;99942.63;;;14.68;75.47
33496;BME280;19836;55.812;37.560;2023-05-23T02:50:26;99937.16;;;14.69;74.66
33496;BME280;19836;55.812;37.560;2023-05-23T02:52:55;99936.03;;;14.75;75.11
33496;BME280;19836;55.812;37.560;2023-05-23T02:55:26;99930.44;;;14.79;74.86
33496;BME280;19836;55.812;37.560;2023-05-23T02:57:57;99933.75;;;14.86;74.61
33496;BME280;19836;55.812;37.560;2023-05-23T03:00:33;99935.31;;;14.91;74.75
33496;BME280;19836;55.812;37.560;2023-05-23T03:03:16;99938.72;;;14.95;74.03
33496;BME280;19836;55.812;37.560;2023-05-23T03:05:43;99941.28;;;14.98;73.49
33496;BME280;19836;55.812;37.560;2023-05-23T03:08:13;99950.25;;;14.98;73.81
33496;BME280;19836;55.812;37.560;2023-05-23T03:10:50;99945.66;;;15.00;73.52
33496;BME280;19836;55.812;37.560;2023-05-23T03:13:23;99945.66;;;15.00;73.09
33496;BME280;19836;55.812;37.560;2023-05-23T03:15:50;99947.44;;;15.01;73.23
33496;BME280;19836;55.812;37.560;2023-05-23T03:18:16;99941.75;;;15.07;72.86
33496;BME280;19836;55.812;37.560;2023-05-23T03:20:42;99948.78;;;15.11;72.54
33496;BME280;19836;55.812;37.560;2023-05-23T03:23:09;99944.84;;;15.18;72.14
33496;BME280;19836;55.812;37.560;2023-05-23T03:25:38;99949.66;;;15.30;72.00
33496;BME280;19836;55.812;37.560;2023-05-23T03:28:05;99936.50;;;15.43;71.45
33496;BME280;19836;55.812;37.560;2023-05-23T03:30:33;99936.63;;;15.60;70.52
33496;BME280;19836;55.812;37.560;2023-05-23T03:33:02;99918.91;;;15.71;70.28
33496;BME280;19836;55.812;37.560;2023-05-23T03:35:29;99935.59;;;15.81;69.55
33496;BME280;19836;55.812;37.560;2023-05-23T03:37:58;99936.00;;;15.90;68.74
33496;BME280;19836;55.812;37.560;2023-05-23T03:40:28;99934.84;;;15.96;67.99
33496;BME280;19836;55.812;37.560;2023-05-23T03:43:04;99937.16;;;16.03;68.27
33496;BME280;19836;55.812;37.560;2023-05-23T03:45:36;99924.06;;;16.13;67.55
33496;BME280;19836;55.812;37.560;2023-05-23T03:48:15;99927.22;;;16.22;67.71
33496;BME280;19836;55.812;37.560;2023-05-23T03:50:55;99923.16;;;16.31;67.44
33496;BME280;19836;55.812;37.560;2023-05-23T03:53:30;99928.19;;;16.38;66.79
33496;BME280;19836;55.812;37.560;2023-05-23T03:56:22;99923.91;;;16.51;66.37
33496;BME280;19836;55.812;37.560;2023-05-23T03:59:10;99926.00;;;16.63;65.88
33496;BME280;19836;55.812;37.560;2023-05-23T04:01:58;99928.06;;;16.75;65.53
33496;BME280;19836;55.812;37.560;2023-05-23T04:04:28;99921.28;;;16.84;65.07
33496;BME280;19836;55.812;37.560;2023-05-23T04:07:02;99916.34;;;16.92;65.11
33496;BME280;19836;55.812;37.560;2023-05-23T04:09:30;99921.22;;;17.02;64.67
33496;BME280;19836;55.812;37.560;2023-05-23T04:11:57;99923.09;;;17.00;64.38
33496;BME280;19836;55.812;37.560;2023-05-23T04:14:23;99929.41;;;17.01;64.51
33496;BME280;19836;55.812;37.560;2023-05-23T04:16:54;99925.81;;;17.00;64.41
33496;BME280;19836;55.812;37.560;2023-05-23T04:23:46;99929.00;;;16.91;64.41
33496;BME280;19836;55.812;37.560;2023-05-23T09:35:33;99876.31;;;27.25;42.71
33496;BME280;19836;55.812;37.560;2023-05-23T09:37:59;99881.38;;;27.11;42.38
33496;BME280;19836;55.812;37.560;2023-05-23T16:07:02;99735.00;;;20.45;68.75
33496;BME280;19836;55.812;37.560;2023-05-23T16:17:11;99736.84;;;20.32;68.78
33496;BME280;19836;55.812;37.560;2023-05-23T16:19:59;99739.22;;;20.24;69.84
33496;BME280;19836;55.812;37.560;2023-05-23T16:28:15;99731.59;;;20.16;71.10
33496;BME280;19836;55.812;37.560;2023-05-23T16:30:48;99728.97;;;20.15;71.97
33496;BME280;19836;55.812;37.560;2023-05-23T16:33:20;99726.38;;;20.13;71.96
33496;BME280;19836;55.812;37.560;2023-05-23T16:43:09;99723.09;;;20.08;72.30
